Time;durP1;ratioP1;P1;durP2;ratioP2;P2;SDS_P1;SDS_P2;PMS_P1;PMS_P2;Temp;Humidity;BMP_temperature;BMP_pressure;BME280_temperature;BME280_humidity;BME280_pressure;Samples;Min_cycle;Max_cycle;Signal;HPM_P1;HPM_P2
2022/04/07 00:01:01;;;;;;;;;;;;;;;20.81;43.03;98551.31;7280374;19;154586;-57
2022/04/07 00:03:27;;;;;;;;;;;;;;;20.74;42.76;98539.94;7281307;19;152400;-58
2022/04/07 00:05:54;;;;;;;;;;;;;;;20.77;42.86;98538.38;7279147;19;154220;-58
2022/04/07 00:08:21;;;;;;;;;;;;;;;20.75;42.73;98523.91;7280813;19;154020;-57
2022/04/07 00:10:48;;;;;;;;;;;;;;;20.74;43.25;98531.53;7279511;19;151825;-57
2022/04/07 00:13:14;;;;;;;;;;;;;;;20.70;42.47;98507.38;7284665;19;152912;-57
2022/04/07 00:15:41;;;;;;;;;;;;;;;20.68;42.77;98502.13;7279610;19;151960;-57
2022/04/07 00:18:09;;;;;;;;;;;;;;;20.69;42.70;98503.75;7282184;19;152777;-57
2022/04/07 00:20:36;;;;;;;;;;;;;;;20.65;42.40;98510.47;7280016;19;153782;-58
2022/04/07 00:23:03;;;;;;;;;;;;;;;20.61;42.55;98502.00;7278997;19;152064;-57
2022/04/07 00:25:30;;;;;;;;;;;;;;;20.58;42.46;98485.88;7281386;19;151918;-58
2022/04/07 00:27:56;;;;;;;;;;;;;;;20.59;42.51;98509.13;7277629;19;154163;-57
2022/04/07 00:30:23;;;;;;;;;;;;;;;20.57;42.88;98483.44;7275060;19;152158;-58
2022/04/07 00:32:50;;;;;;;;;;;;;;;20.57;42.81;98487.06;7279546;19;152494;-58
2022/04/07 00:35:17;;;;;;;;;;;;;;;20.54;43.14;98473.75;7287501;19;153619;-57
2022/04/07 00:37:44;;;;;;;;;;;;;;;20.51;43.30;98474.50;7280080;19;152557;-57
2022/04/07 00:40:11;;;;;;;;;;;;;;;20.52;43.15;98470.53;7278044;19;154333;-57
2022/04/07 00:42:48;;;;;;;;;;;;;;;20.48;43.01;98450.00;7277813;19;151708;-57
2022/04/07 00:45:15;;;;;;;;;;;;;;;20.49;43.30;98446.00;7279405;19;153292;-57
2022/04/07 00:47:42;;;;;;;;;;;;;;;20.45;43.28;98444.31;7279401;19;154350;-58
2022/04/07 00:50:11;;;;;;;;;;;;;;;20.40;43.29;98431.38;7278674;19;151998;-57
2022/04/07 00:52:41;;;;;;;;;;;;;;;20.40;43.46;98420.16;7281048;19;153004;-57
2022/04/07 00:55:09;;;;;;;;;;;;;;;20.37;44.07;98418.13;7278265;19;153237;-57
2022/04/07 00:57:36;;;;;;;;;;;;;;;20.32;43.41;98410.81;7287932;19;151914;-57
2022/04/07 01:00:03;;;;;;;;;;;;;;;20.34;43.57;98416.06;7278120;19;152612;-57
2022/04/07 01:02:30;;;;;;;;;;;;;;;20.32;43.59;98395.97;7280421;19;152220;-57
2022/04/07 01:04:57;;;;;;;;;;;;;;;20.37;44.06;98404.09;7278500;19;154092;-57
2022/04/07 01:07:25;;;;;;;;;;;;;;;20.33;43.86;98383.56;7278158;19;154224;-57
2022/04/07 01:09:59;;;;;;;;;;;;;;;20.32;43.64;98384.75;7277530;19;152209;-57
2022/04/07 01:12:25;;;;;;;;;;;;;;;20.27;44.22;98385.84;7276965;19;153127;-57
2022/04/07 01:14:57;;;;;;;;;;;;;;;20.20;43.45;98380.09;7277987;19;154426;-57
2022/04/07 01:17:23;;;;;;;;;;;;;;;20.24;44.18;98375.38;7278940;19;154569;-56
2022/04/07 01:19:54;;;;;;;;;;;;;;;20.26;43.88;98377.81;7286493;19;152701;-56
2022/04/07 01:22:24;;;;;;;;;;;;;;;20.15;43.53;98413.22;7280387;19;152115;-57
2022/04/07 01:24:51;;;;;;;;;;;;;;;20.18;44.07;98424.50;7280040;19;153337;-56
2022/04/07 01:27:18;;;;;;;;;;;;;;;20.18;44.60;98430.09;7280048;19;153555;-57
2022/04/07 01:29:45;;;;;;;;;;;;;;;20.15;44.42;98416.81;7277910;19;151924;-56
2022/04/07 01:32:16;;;;;;;;;;;;;;;20.11;44.63;98412.31;7275522;19;152612;-56
2022/04/07 01:34:42;;;;;;;;;;;;;;;20.08;44.71;98424.28;7277287;19;154335;-56
2022/04/07 01:37:10;;;;;;;;;;;;;;;20.05;44.90;98422.19;7276549;19;152035;-57
2022/04/07 01:39:38;;;;;;;;;;;;;;;19.97;44.52;98396.00;7276724;19;152582;-57
2022/04/07 01:42:06;;;;;;;;;;;;;;;19.93;44.75;98389.50;7290769;19;153317;-57
2022/04/07 01:44:36;;;;;;;;;;;;;;;19.91;44.54;98375.84;7285013;19;152566;-57
2022/04/07 01:47:03;;;;;;;;;;;;;;;19.92;45.14;98371.88;7283606;19;153578;-57
2022/04/07 01:49:33;;;;;;;;;;;;;;;19.90;45.20;98377.03;7286063;19;151746;-57
2022/04/07 01:52:02;;;;;;;;;;;;;;;19.88;44.93;98371.00;7284141;19;152592;-57
2022/04/07 01:54:29;;;;;;;;;;;;;;;19.87;45.27;98343.31;7285217;19;153212;-57
2022/04/07 01:56:56;;;;;;;;;;;;;;;19.80;44.75;98379.59;7284918;19;153470;-57
2022/04/07 01:59:24;;;;;;;;;;;;;;;19.79;44.75;98370.38;7284817;19;152520;-57
2022/04/07 02:01:50;;;;;;;;;;;;;;;19.83;44.86;98354.47;7284194;19;153265;-57
2022/04/07 02:04:17;;;;;;;;;;;;;;;19.78;45.20;98363.16;7291962;19;152052;-57
2022/04/07 02:06:44;;;;;;;;;;;;;;;19.76;44.96;98337.47;7281826;19;153271;-57
2022/04/07 02:09:11;;;;;;;;;;;;;;;19.78;45.32;98335.13;7285221;19;151932;-57
2022/04/07 02:11:37;;;;;;;;;;;;;;;19.70;45.04;98335.34;7282068;19;153553;-57
2022/04/07 02:14:04;;;;;;;;;;;;;;;19.67;45.06;98342.47;7280815;19;154304;-57
2022/04/07 02:16:31;;;;;;;;;;;;;;;19.65;45.34;98330.84;7281095;19;152092;-57
2022/04/07 02:18:58;;;;;;;;;;;;;;;19.65;45.39;98325.25;7285150;19;153469;-57
2022/04/07 02:21:24;;;;;;;;;;;;;;;19.63;45.38;98323.97;7280984;19;153680;-57
2022/04/07 02:23:52;;;;;;;;;;;;;;;19.66;45.75;98343.69;7290912;19;151853;-56
2022/04/07 02:26:24;;;;;;;;;;;;;;;19.68;45.57;98335.72;7282850;19;153971;-57
2022/04/07 02:28:51;;;;;;;;;;;;;;;19.66;46.01;98329.69;7283401;19;152151;-56
2022/04/07 02:31:18;;;;;;;;;;;;;;;19.64;45.56;98315.22;7283552;19;152523;-56
2022/04/07 02:33:45;;;;;;;;;;;;;;;19.65;46.06;98316.03;7281001;19;153266;-56
2022/04/07 02:36:14;;;;;;;;;;;;;;;19.59;45.63;98329.50;7283679;19;152112;-58
2022/04/07 02:38:43;;;;;;;;;;;;;;;19.57;45.84;98334.69;7280921;19;151878;-57
2022/04/07 02:41:10;;;;;;;;;;;;;;;19.60;46.36;98327.50;7281343;19;154252;-57
2022/04/07 02:43:37;;;;;;;;;;;;;;;19.57;46.23;98323.47;7283609;19;152632;-57
2022/04/07 02:46:04;;;;;;;;;;;;;;;19.58;46.50;98325.06;7289939;19;152604;-57
2022/04/07 02:48:31;;;;;;;;;;;;;;;19.53;45.98;98311.38;7282600;19;151879;-57
2022/04/07 02:50:57;;;;;;;;;;;;;;;19.52;46.54;98326.56;7280672;19;153179;-57
2022/04/07 02:53:25;;;;;;;;;;;;;;;19.52;46.58;98332.97;7279903;19;153373;-57
2022/04/07 02:55:51;;;;;;;;;;;;;;;19.53;46.74;98334.56;7283722;19;151918;-57
2022/04/07 02:58:18;;;;;;;;;;;;;;;19.51;46.25;98313.72;7280311;19;152069;-57
2022/04/07 03:00:45;;;;;;;;;;;;;;;19.50;46.56;98300.88;7280589;19;153407;-57
2022/04/07 03:03:12;;;;;;;;;;;;;;;19.48;46.84;98292.88;7282388;19;152120;-57
2022/04/07 03:05:38;;;;;;;;;;;;;;;19.45;46.84;98287.16;7282905;19;153258;-57
2022/04/07 03:08:05;;;;;;;;;;;;;;;19.44;47.21;98291.19;7289302;19;154339;-57
2022/04/07 03:10:32;;;;;;;;;;;;;;;19.42;46.70;98283.09;7283198;19;152600;-58
2022/04/07 03:12:58;;;;;;;;;;;;;;;19.41;47.19;98308.66;7277187;19;153364;-59
2022/04/07 03:15:25;;;;;;;;;;;;;;;19.39;47.20;98300.63;7282050;19;152526;-58
2022/04/07 03:17:52;;;;;;;;;;;;;;;19.39;46.92;98260.63;7280939;19;152095;-58
2022/04/07 03:20:19;;;;;;;;;;;;;;;19.41;47.32;98270.25;7281031;19;153730;-57
2022/04/07 03:22:45;;;;;;;;;;;;;;;19.38;46.83;98285.00;7282832;19;151469;-57
2022/04/07 03:25:12;;;;;;;;;;;;;;;19.38;46.77;98268.22;7280978;19;152896;-57
2022/04/07 03:27:39;;;;;;;;;;;;;;;19.36;46.93;98278.13;7282131;19;153391;-57
2022/04/07 03:30:06;;;;;;;;;;;;;;;19.34;46.67;98267.31;7289019;19;152153;-57
2022/04/07 03:32:32;;;;;;;;;;;;;;;19.33;46.74;98250.88;7277737;19;153395;-57
2022/04/07 03:34:59;;;;;;;;;;;;;;;19.30;47.01;98249.63;7282478;19;151648;-57
2022/04/07 03:37:26;;;;;;;;;;;;;;;19.34;46.69;98250.53;7280625;19;152933;-57
2022/04/07 03:39:52;;;;;;;;;;;;;;;19.32;46.80;98238.06;7280288;19;154419;-57
2022/04/07 03:42:19;;;;;;;;;;;;;;;19.32;46.25;98215.66;7282080;19;152185;-57
2022/04/07 03:44:46;;;;;;;;;;;;;;;19.30;46.40;98223.63;7279171;19;153375;-57
2022/04/07 03:47:13;;;;;;;;;;;;;;;19.25;46.25;98207.13;7281785;19;153010;-57
2022/04/07 03:49:39;;;;;;;;;;;;;;;19.25;45.98;98209.91;7281697;19;151847;-57
2022/04/07 03:52:06;;;;;;;;;;;;;;;19.25;45.83;98201.53;7286183;19;152773;-58
2022/04/07 03:54:33;;;;;;;;;;;;;;;19.23;45.94;98207.47;7279640;19;152222;-56
2022/04/07 03:57:00;;;;;;;;;;;;;;;19.23;45.88;98207.47;7281062;19;153359;-57
2022/04/07 03:59:27;;;;;;;;;;;;;;;19.22;45.71;98200.25;7280247;19;153163;-57
2022/04/07 04:01:54;;;;;;;;;;;;;;;19.22;45.88;98199.44;7281282;19;151776;-57
2022/04/07 04:04:22;;;;;;;;;;;;;;;19.12;45.55;98194.44;7280776;19;152705;-57
2022/04/07 04:06:48;;;;;;;;;;;;;;;19.13;46.04;98196.03;7279935;19;154330;-57
2022/04/07 04:09:15;;;;;;;;;;;;;;;19.08;45.86;98183.13;7281582;19;151878;-58
2022/04/07 04:11:42;;;;;;;;;;;;;;;19.08;45.94;98171.94;7280305;19;152713;-58
2022/04/07 04:14:09;;;;;;;;;;;;;;;19.09;45.56;98165.19;7287564;19;151984;-59
2022/04/07 04:16:36;;;;;;;;;;;;;;;19.08;45.96;98167.16;7281310;19;153372;-58
2022/04/07 04:19:02;;;;;;;;;;;;;;;19.05;45.25;98179.09;7280123;19;153517;-58
2022/04/07 04:21:29;;;;;;;;;;;;;;;19.06;45.35;98185.50;7280315;19;151545;-59
2022/04/07 04:23:56;;;;;;;;;;;;;;;19.05;45.18;98172.69;7281809;19;152681;-58
2022/04/07 04:26:26;;;;;;;;;;;;;;;19.02;45.65;98179.03;7279468;19;153286;-58
2022/04/07 04:28:53;;;;;;;;;;;;;;;19.02;45.83;98177.03;7280866;19;151890;-57
2022/04/07 04:31:24;;;;;;;;;;;;;;;19.03;45.41;98184.22;7279593;19;151886;-57
2022/04/07 04:33:51;;;;;;;;;;;;;;;19.05;45.80;98169.88;7285738;19;155041;-57
2022/04/07 04:36:24;;;;;;;;;;;;;;;19.10;45.70;98164.81;7280622;19;153296;-56
2022/04/07 04:38:51;;;;;;;;;;;;;;;19.15;45.61;98162.91;7278642;19;154024;-57
2022/04/07 04:41:18;;;;;;;;;;;;;;;19.20;45.92;98155.03;7280272;19;151872;-57
2022/04/07 04:43:45;;;;;;;;;;;;;;;19.23;45.86;98145.88;7280016;19;153642;-58
2022/04/07 04:46:12;;;;;;;;;;;;;;;19.29;46.12;98146.41;7279680;19;154334;-58
2022/04/07 04:48:40;;;;;;;;;;;;;;;19.34;45.83;98152.53;7280930;19;152494;-57
2022/04/07 04:51:07;;;;;;;;;;;;;;;19.40;45.92;98156.63;7277482;19;153599;-57
2022/04/07 04:53:34;;;;;;;;;;;;;;;19.45;46.36;98153.56;7276228;19;153991;-57
2022/04/07 04:56:00;;;;;;;;;;;;;;;19.52;46.39;98162.13;7287609;19;151673;-56
2022/04/07 04:58:27;;;;;;;;;;;;;;;19.59;45.98;98155.84;7277782;19;154020;-56
2022/04/07 05:00:54;;;;;;;;;;;;;;;19.66;46.05;98155.19;7280568;19;152339;-57
2022/04/07 05:03:21;;;;;;;;;;;;;;;19.74;46.12;98159.75;7278871;19;153195;-57
2022/04/07 05:05:47;;;;;;;;;;;;;;;19.80;46.42;98175.09;7279209;19;153973;-57
2022/04/07 05:08:14;;;;;;;;;;;;;;;19.85;45.79;98166.38;7277941;19;152229;-56
2022/04/07 05:10:40;;;;;;;;;;;;;;;19.91;46.02;98176.91;7280446;19;153307;-57
2022/04/07 05:13:07;;;;;;;;;;;;;;;19.97;45.83;98175.41;7275849;19;153285;-57
2022/04/07 05:15:36;;;;;;;;;;;;;;;20.05;46.41;98172.72;7275653;19;151650;-57
2022/04/07 05:18:02;;;;;;;;;;;;;;;20.11;46.70;98171.25;7284363;19;152978;-57
2022/04/07 05:20:29;;;;;;;;;;;;;;;20.17;46.62;98167.75;7277687;19;152370;-57
2022/04/07 05:22:56;;;;;;;;;;;;;;;20.22;45.85;98175.03;7279444;19;153374;-57
2022/04/07 05:25:22;;;;;;;;;;;;;;;20.27;45.44;98171.91;7276570;19;154037;-57
2022/04/07 05:27:49;;;;;;;;;;;;;;;20.33;45.09;98173.28;7278757;19;151975;-57
2022/04/07 05:30:16;;;;;;;;;;;;;;;20.38;44.77;98176.56;7278636;19;151908;-58
2022/04/07 05:32:43;;;;;;;;;;;;;;;20.44;44.92;98176.25;7276583;19;153467;-57
2022/04/07 05:35:11;;;;;;;;;;;;;;;20.48;44.21;98183.56;7278446;19;153410;-57
2022/04/07 05:37:38;;;;;;;;;;;;;;;20.53;44.28;98172.03;7278333;19;152628;-57
2022/04/07 05:40:05;;;;;;;;;;;;;;;20.57;43.95;98172.88;7285560;19;153566;-57
2022/04/07 05:42:31;;;;;;;;;;;;;;;20.63;43.73;98174.16;7275649;19;153069;-58
2022/04/07 05:44:58;;;;;;;;;;;;;;;20.67;43.87;98175.03;7278162;19;154132;-57
2022/04/07 05:47:25;;;;;;;;;;;;;;;20.72;44.33;98162.66;7279279;19;152377;-57
2022/04/07 05:49:55;;;;;;;;;;;;;;;20.77;44.58;98168.78;7278269;19;151804;-57
2022/04/07 05:52:21;;;;;;;;;;;;;;;20.82;44.39;98167.63;7276543;19;153857;-57
2022/04/07 05:54:48;;;;;;;;;;;;;;;20.85;43.79;98169.69;7278487;19;151986;-57
2022/04/07 05:57:15;;;;;;;;;;;;;;;20.89;43.94;98179.00;7276833;19;152440;-57
2022/04/07 05:59:42;;;;;;;;;;;;;;;20.94;43.69;98172.25;7275034;19;153428;-57
2022/04/07 06:02:09;;;;;;;;;;;;;;;20.98;43.66;98185.13;7286291;19;151520;-57
2022/04/07 06:04:39;;;;;;;;;;;;;;;21.02;43.87;98188.00;7276437;19;153512;-57
2022/04/07 06:07:05;;;;;;;;;;;;;;;21.07;43.79;98194.09;7276461;19;152275;-58
2022/04/07 06:09:34;;;;;;;;;;;;;;;21.10;43.28;98198.94;7277318;19;152600;-58
2022/04/07 06:12:01;;;;;;;;;;;;;;;21.15;43.50;98197.84;7276140;19;153240;-58
2022/04/07 06:14:28;;;;;;;;;;;;;;;21.16;42.74;98200.28;7275553;19;152036;-57
2022/04/07 06:16:54;;;;;;;;;;;;;;;21.20;42.75;98203.94;7277074;19;153185;-57
2022/04/07 06:19:21;;;;;;;;;;;;;;;21.22;42.81;98206.34;7276357;19;154111;-57
2022/04/07 06:21:48;;;;;;;;;;;;;;;21.24;42.64;98212.41;7282288;19;151588;-57
2022/04/07 06:24:15;;;;;;;;;;;;;;;21.28;42.54;98213.25;7274226;19;153539;-58
2022/04/07 06:26:41;;;;;;;;;;;;;;;21.29;42.30;98214.88;7276000;19;151952;-58
2022/04/07 06:29:08;;;;;;;;;;;;;;;21.30;42.67;98217.28;7283784;19;152875;-57
2022/04/07 06:31:35;;;;;;;;;;;;;;;21.33;42.32;98221.38;7282610;19;154057;-57
2022/04/07 06:34:04;;;;;;;;;;;;;;;21.34;42.21;98216.56;7282415;19;152103;-58
2022/04/07 06:36:34;;;;;;;;;;;;;;;21.34;42.02;98225.78;7284021;19;152913;-57
2022/04/07 06:39:01;;;;;;;;;;;;;;;21.35;42.08;98206.94;7281653;19;153919;-58
2022/04/07 06:41:27;;;;;;;;;;;;;;;21.35;42.02;98216.16;7281201;19;152084;-58
2022/04/07 06:43:54;;;;;;;;;;;;;;;21.35;42.06;98218.19;7290020;19;153716;-57
2022/04/07 06:46:25;;;;;;;;;;;;;;;21.37;42.13;98225.03;7282550;19;151950;-58
2022/04/07 06:48:52;;;;;;;;;;;;;;;21.39;42.30;98221.84;7281620;19;153453;-57
2022/04/07 06:51:18;;;;;;;;;;;;;;;21.37;41.68;98222.22;7282477;19;151960;-58
2022/04/07 06:53:45;;;;;;;;;;;;;;;21.34;41.84;98219.38;7281465;19;152461;-58
2022/04/07 06:56:12;;;;;;;;;;;;;;;21.35;41.38;98221.78;7283228;19;153371;-56
2022/04/07 06:58:40;;;;;;;;;;;;;;;20.83;37.19;98214.16;7280868;19;154525;-56
2022/04/07 07:01:08;;;;;;;;;;;;;;;20.91;38.00;98223.50;7283851;19;152055;-57
2022/04/07 07:03:35;;;;;;;;;;;;;;;20.92;38.19;98225.94;7281026;19;153624;-57
2022/04/07 07:06:02;;;;;;;;;;;;;;;20.90;38.34;98235.91;7289728;19;153591;-57
2022/04/07 07:08:29;;;;;;;;;;;;;;;20.89;38.42;98225.88;7282801;19;153246;-57
2022/04/07 07:10:56;;;;;;;;;;;;;;;20.86;38.11;98214.22;7279051;19;154211;-57
2022/04/07 07:13:23;;;;;;;;;;;;;;;20.83;38.61;98223.41;7280233;19;151583;-57
2022/04/07 07:15:52;;;;;;;;;;;;;;;20.80;38.22;98232.56;7282870;19;152793;-57
2022/04/07 07:18:19;;;;;;;;;;;;;;;20.95;38.80;98222.38;7281302;19;153392;-60
2022/04/07 07:20:46;;;;;;;;;;;;;;;20.94;39.46;98225.56;7282002;19;152386;-57
2022/04/07 07:23:15;;;;;;;;;;;;;;;20.84;39.54;98207.38;7283227;19;152809;-57
2022/04/07 07:25:42;;;;;;;;;;;;;;;20.80;39.32;98214.94;7279497;19;154363;-57
2022/04/07 07:28:09;;;;;;;;;;;;;;;20.73;38.64;98207.19;7289269;19;152014;-57
2022/04/07 07:30:36;;;;;;;;;;;;;;;20.68;38.52;98213.13;7281387;19;153255;-57
2022/04/07 07:33:03;;;;;;;;;;;;;;;20.65;38.84;98213.06;7281121;19;151808;-56
2022/04/07 07:35:29;;;;;;;;;;;;;;;20.59;38.27;98214.56;7282046;19;153373;-57
2022/04/07 07:37:59;;;;;;;;;;;;;;;20.53;38.01;98216.91;7280875;19;152119;-57
2022/04/07 07:40:27;;;;;;;;;;;;;;;20.50;38.07;98219.63;7281112;19;151691;-57
2022/04/07 07:42:57;;;;;;;;;;;;;;;20.47;37.95;98217.56;7280906;19;153340;-57
2022/04/07 07:45:24;;;;;;;;;;;;;;;20.44;37.90;98224.75;7275188;19;153276;-57
2022/04/07 07:48:12;;;;;;;;;;;;;;;20.43;37.75;98237.16;7282255;19;152159;-57
2022/04/07 07:50:45;;;;;;;;;;;;;;;20.47;37.76;98226.00;7288265;19;152762;-62
2022/04/07 07:53:17;;;;;;;;;;;;;;;20.50;38.16;98234.47;7280880;19;152141;-58
2022/04/07 07:55:44;;;;;;;;;;;;;;;20.44;38.14;98223.94;7279668;19;153381;-56
2022/04/07 07:58:11;;;;;;;;;;;;;;;20.40;38.13;98224.66;7280044;19;153313;-56
2022/04/07 08:00:38;;;;;;;;;;;;;;;20.32;37.96;98238.94;7281616;19;151867;-57
2022/04/07 08:03:05;;;;;;;;;;;;;;;20.32;37.66;98253.78;7281797;19;151938;-57
2022/04/07 08:05:32;;;;;;;;;;;;;;;20.30;37.77;98233.72;7279725;19;153801;-56
2022/04/07 08:08:00;;;;;;;;;;;;;;;20.28;37.96;98250.06;7281440;19;151624;-55
2022/04/07 08:10:26;;;;;;;;;;;;;;;20.16;37.60;98252.25;7280278;19;152834;-56
2022/04/07 08:12:53;;;;;;;;;;;;;;;20.13;37.99;98266.97;7285136;19;154377;-56
2022/04/07 08:15:20;;;;;;;;;;;;;;;20.07;37.95;98277.69;7281357;19;152660;-56
2022/04/07 08:17:47;;;;;;;;;;;;;;;20.03;37.63;98270.41;7279858;19;153226;-56
2022/04/07 08:20:13;;;;;;;;;;;;;;;20.00;37.33;98269.13;7281373;19;152479;-56
2022/04/07 08:22:40;;;;;;;;;;;;;;;19.97;37.71;98267.09;7280891;19;152859;-56
2022/04/07 08:25:07;;;;;;;;;;;;;;;19.97;37.56;98281.09;7279810;19;153194;-56
2022/04/07 08:27:34;;;;;;;;;;;;;;;19.86;37.80;98280.06;7280983;19;151934;-56
2022/04/07 08:30:02;;;;;;;;;;;;;;;19.88;37.74;98283.31;7281830;19;152968;-56
2022/04/07 08:32:31;;;;;;;;;;;;;;;19.81;37.24;98295.16;7286347;19;154135;-56
2022/04/07 08:34:59;;;;;;;;;;;;;;;19.79;37.00;98299.53;7277591;19;151989;-56
2022/04/07 08:37:25;;;;;;;;;;;;;;;19.71;36.85;98287.38;7277557;19;153249;-56
2022/04/07 08:39:52;;;;;;;;;;;;;;;19.72;36.96;98294.56;7279577;19;152137;-56
2022/04/07 08:42:26;;;;;;;;;;;;;;;19.73;36.86;98275.78;7280885;19;153578;-56
2022/04/07 08:44:53;;;;;;;;;;;;;;;19.73;37.25;98286.97;7278925;19;154506;-56
2022/04/07 08:47:20;;;;;;;;;;;;;;;19.76;37.32;98291.88;7281470;19;151783;-58
2022/04/07 08:49:48;;;;;;;;;;;;;;;19.85;36.74;98298.84;7280385;19;153237;-58
2022/04/07 08:52:15;;;;;;;;;;;;;;;19.94;38.69;98296.63;7278468;19;153252;-59
2022/04/07 08:54:44;;;;;;;;;;;;;;;19.90;36.14;98306.97;7285317;19;151682;-56
2022/04/07 08:57:12;;;;;;;;;;;;;;;20.04;36.32;98312.06;7276994;19;153272;-56
2022/04/07 08:59:38;;;;;;;;;;;;;;;19.99;36.58;98313.16;7280167;19;151793;-56
2022/04/07 09:02:05;;;;;;;;;;;;;;;20.02;36.83;98344.44;7280430;19;153301;-56
2022/04/07 09:04:38;;;;;;;;;;;;;;;20.03;36.42;98318.06;7278662;19;151948;-55
2022/04/07 09:07:06;;;;;;;;;;;;;;;20.10;36.80;98351.81;7278838;19;152761;-57
2022/04/07 09:09:34;;;;;;;;;;;;;;;20.05;36.62;98332.50;7279706;19;153550;-56
2022/04/07 09:12:00;;;;;;;;;;;;;;;20.04;36.72;98345.69;7276966;19;153985;-57
2022/04/07 09:14:33;;;;;;;;;;;;;;;20.04;36.48;98344.88;7277555;19;151679;-57
2022/04/07 09:17:00;;;;;;;;;;;;;;;20.00;35.98;98356.03;7284606;19;152669;-57
2022/04/07 09:19:28;;;;;;;;;;;;;;;19.97;36.30;98353.97;7277439;19;151750;-57
2022/04/07 09:22:08;;;;;;;;;;;;;;;19.94;35.98;98335.88;7279812;19;153181;-56
2022/04/07 09:24:36;;;;;;;;;;;;;;;20.08;36.21;98362.59;7278815;19;153305;-71
2022/04/07 09:27:06;;;;;;;;;;;;;;;20.32;36.57;98371.53;7280262;19;151778;-61
2022/04/07 09:29:44;;;;;;;;;;;;;;;20.37;40.15;98381.66;7280956;19;152420;-61
2022/04/07 09:32:20;;;;;;;;;;;;;;;20.38;39.93;98363.66;7278649;19;155273;-62
2022/04/07 09:34:54;;;;;;;;;;;;;;;20.49;38.74;98370.28;7278746;19;151574;-61
2022/04/07 09:37:21;;;;;;;;;;;;;;;20.61;41.97;98386.97;7280619;19;153435;-61
2022/04/07 09:40:04;;;;;;;;;;;;;;;20.61;43.18;98375.75;7286118;19;153241;-64
2022/04/07 09:42:31;;;;;;;;;;;;;;;20.67;44.53;98407.91;7280232;19;153518;-65
2022/04/07 09:44:59;;;;;;;;;;;;;;;20.76;44.66;98416.06;7279215;19;152589;-63
2022/04/07 09:47:39;;;;;;;;;;;;;;;20.78;43.82;98406.13;7278569;19;151519;-60
2022/04/07 09:50:07;;;;;;;;;;;;;;;20.77;42.04;98393.25;7275999;19;153290;-57
2022/04/07 09:52:37;;;;;;;;;;;;;;;20.81;41.55;98405.38;7274545;19;152061;-57
2022/04/07 09:55:06;;;;;;;;;;;;;;;20.89;43.40;98422.34;7275969;19;151694;-56
2022/04/07 09:57:33;;;;;;;;;;;;;;;20.91;41.65;98417.16;7277906;19;153578;-57
2022/04/07 10:00:04;;;;;;;;;;;;;;;20.89;40.25;98428.78;7275415;19;153262;-56
2022/04/07 10:02:31;;;;;;;;;;;;;;;20.86;39.54;98421.09;7287739;19;151784;-56
2022/04/07 10:04:59;;;;;;;;;;;;;;;20.86;38.62;98426.69;7282734;19;152865;-57
2022/04/07 10:07:26;;;;;;;;;;;;;;;20.88;39.15;98440.38;7285017;19;151578;-54
2022/04/07 10:09:54;;;;;;;;;;;;;;;20.84;37.41;98431.91;7283546;19;153502;-56
2022/04/07 10:12:21;;;;;;;;;;;;;;;20.75;37.87;98426.53;7282477;19;153342;-56
2022/04/07 10:14:48;;;;;;;;;;;;;;;20.87;37.00;98445.16;7282201;19;151820;-56
2022/04/07 10:17:15;;;;;;;;;;;;;;;20.83;36.58;98433.88;7284424;19;153191;-57
2022/04/07 10:19:48;;;;;;;;;;;;;;;20.82;36.40;98428.63;7283336;19;153948;-58
2022/04/07 10:22:45;;;;;;;;;;;;;;;20.80;36.64;98436.63;7281677;19;152089;-57
2022/04/07 10:25:12;;;;;;;;;;;;;;;20.78;37.42;98437.00;7288710;19;152322;-57
2022/04/07 10:27:42;;;;;;;;;;;;;;;20.81;36.79;98444.66;7283844;19;152051;-58
2022/04/07 10:30:11;;;;;;;;;;;;;;;20.81;36.35;98452.25;7284737;19;152586;-58
2022/04/07 10:32:39;;;;;;;;;;;;;;;20.84;35.85;98449.53;7282302;19;152142;-58
2022/04/07 10:35:06;;;;;;;;;;;;;;;20.94;36.64;98458.53;7281680;19;153233;-57
2022/04/07 10:37:44;;;;;;;;;;;;;;;21.12;36.35;98471.72;7282154;19;153145;-57
2022/04/07 10:40:29;;;;;;;;;;;;;;;21.09;35.29;98474.47;7282995;19;152421;-57
2022/04/07 10:43:19;;;;;;;;;;;;;;;21.04;35.61;98469.16;7283867;19;152174;-56
2022/04/07 10:46:01;;;;;;;;;;;;;;;21.04;34.94;98472.75;7289484;19;152827;-56
2022/04/07 10:48:29;;;;;;;;;;;;;;;20.96;35.02;98473.00;7283431;19;151828;-56
2022/04/07 10:50:58;;;;;;;;;;;;;;;20.96;34.83;98473.81;7283519;19;152233;-56
2022/04/07 10:53:30;;;;;;;;;;;;;;;20.93;34.78;98474.56;7281130;19;153339;-56
2022/04/07 10:55:59;;;;;;;;;;;;;;;20.94;35.04;98503.47;7281744;19;152129;-56
2022/04/07 10:58:38;;;;;;;;;;;;;;;20.89;35.07;98513.00;7282796;19;153327;-56
2022/04/07 11:01:05;;;;;;;;;;;;;;;20.92;34.77;98492.59;7282336;19;151950;-56
2022/04/07 11:03:32;;;;;;;;;;;;;;;20.90;35.04;98491.31;7283974;19;152142;-58
2022/04/07 11:06:00;;;;;;;;;;;;;;;21.02;34.35;98491.19;7282959;19;153416;-58
2022/04/07 11:08:30;;;;;;;;;;;;;;;20.91;34.25;98499.38;7283547;19;153256;-57
2022/04/07 11:10:56;;;;;;;;;;;;;;;20.96;34.51;98496.28;7282163;19;152996;-57
2022/04/07 11:13:43;;;;;;;;;;;;;;;21.01;35.07;98515.63;7275538;19;154150;-57
2022/04/07 11:16:26;;;;;;;;;;;;;;;21.03;34.53;98513.25;7281352;19;151599;-57
2022/04/07 11:19:00;;;;;;;;;;;;;;;20.93;34.78;98515.88;7283556;19;153102;-56
2022/04/07 11:21:42;;;;;;;;;;;;;;;20.88;34.61;98493.69;7281067;19;154706;-56
2022/04/07 11:24:08;;;;;;;;;;;;;;;20.88;34.14;98500.13;7282651;19;151955;-56
2022/04/07 11:26:35;;;;;;;;;;;;;;;20.86;34.18;98513.72;7282674;19;152761;-56
2022/04/07 11:29:02;;;;;;;;;;;;;;;20.84;34.46;98553.41;7281971;19;153498;-56
2022/04/07 11:31:39;;;;;;;;;;;;;;;20.79;34.40;98511.59;7289477;19;151703;-57
2022/04/07 11:34:25;;;;;;;;;;;;;;;20.78;33.79;98521.19;7281605;19;153388;-57
2022/04/07 11:36:52;;;;;;;;;;;;;;;20.76;34.04;98522.72;7279677;19;152185;-57
2022/04/07 11:39:19;;;;;;;;;;;;;;;20.72;34.66;98531.06;7282659;19;153169;-57
2022/04/07 11:41:46;;;;;;;;;;;;;;;20.70;34.03;98541.03;7281756;19;154550;-57
2022/04/07 11:44:13;;;;;;;;;;;;;;;20.69;34.08;98525.38;7281771;19;152394;-57
2022/04/07 11:46:40;;;;;;;;;;;;;;;20.70;34.18;98543.84;7280598;19;152685;-57
2022/04/07 11:49:07;;;;;;;;;;;;;;;20.74;34.54;98527.91;7279857;19;154071;-57
2022/04/07 11:51:35;;;;;;;;;;;;;;;20.70;33.88;98539.06;7282034;19;151868;-57
2022/04/07 11:54:02;;;;;;;;;;;;;;;20.67;33.93;98534.16;7287065;19;154909;-57
2022/04/07 11:56:31;;;;;;;;;;;;;;;20.67;34.36;98561.44;7279721;19;152081;-56
2022/04/07 11:59:00;;;;;;;;;;;;;;;20.64;34.40;98534.91;7281677;19;153667;-57
2022/04/07 12:01:28;;;;;;;;;;;;;;;20.69;34.03;98554.25;7281019;19;153544;-57
2022/04/07 12:04:02;;;;;;;;;;;;;;;20.60;33.40;98564.06;7281371;19;151489;-57
2022/04/07 12:06:34;;;;;;;;;;;;;;;20.64;34.13;98556.53;7281517;19;152782;-57
2022/04/07 12:09:03;;;;;;;;;;;;;;;20.64;33.70;98556.53;7280954;19;153429;-56
2022/04/07 12:11:31;;;;;;;;;;;;;;;20.63;34.09;98555.72;7280103;19;152015;-56
2022/04/07 12:13:58;;;;;;;;;;;;;;;20.63;34.05;98546.50;7281174;19;152900;-57
2022/04/07 12:16:25;;;;;;;;;;;;;;;20.63;33.78;98585.75;7284003;19;153203;-56
2022/04/07 12:18:53;;;;;;;;;;;;;;;20.63;34.00;98563.31;7279690;19;153170;-56
2022/04/07 12:21:20;;;;;;;;;;;;;;;20.64;33.62;98570.56;7279931;19;153889;-56
2022/04/07 12:23:48;;;;;;;;;;;;;;;20.59;33.89;98577.28;7280665;19;152386;-56
2022/04/07 12:26:17;;;;;;;;;;;;;;;20.58;33.92;98597.31;7281430;19;152734;-57
2022/04/07 12:28:50;;;;;;;;;;;;;;;20.55;33.29;98573.56;7277950;19;154725;-57
2022/04/07 12:31:21;;;;;;;;;;;;;;;20.54;33.20;98583.16;7279572;19;151948;-57
2022/04/07 12:33:49;;;;;;;;;;;;;;;20.46;33.31;98583.38;7280999;19;153846;-57
2022/04/07 12:36:36;;;;;;;;;;;;;;;20.48;33.06;98592.25;7273913;19;155915;-57
2022/04/07 12:39:06;;;;;;;;;;;;;;;20.45;33.46;98588.16;7287982;19;152646;-56
2022/04/07 12:41:36;;;;;;;;;;;;;;;20.49;33.49;98583.44;7279090;19;153173;-57